Asti, California
Current Conditions -  °F | °C
As of 5:53 AM on Saturday 01 Nov 2014 (Local Time) from KSTS Reporting Station
Clear Clear  
Wind Chill: 45°   Ceiling: Unl
Heat Index: 45°   Visibility: 10mi
Dew Point: 43°   Wind: 0mph
Humidity: 93%   Direction: NA
Pressure: 29.76"   Gusts: NA
Location:  38.7954°N, 123.01°W
Report Text: KSTS 011253Z AUTO 00000KT 10SM CLR 07/06 A2976 RMK AO2 SLP073 T00720061
Loading
Personal Weather Stations






























Interactive Weather Map
Tropical Storm Tracking
New forecast layout! Learn more

10-Day Weather Forecast

Advertisements
Track Severe Weather on mobile